Time;durP1;ratioP1;P1;durP2;ratioP2;P2;SDS_P1;SDS_P2;PMS_P1;PMS_P2;Temp;Humidity;BMP_temperature;BMP_pressure;BME280_temperature;BME280_humidity;BME280_pressure;Samples;Min_cycle;Max_cycle;Signal;HPM_P1;HPM_P2
2021/07/06 00:01:22;;;;;;;3.13;2.83;;;20.40;1.00;;;;;;5076690;28;20512;-66
2021/07/06 00:03:48;;;;;;;3.13;2.67;;;20.40;1.00;;;;;;5076480;28;20469;-66
2021/07/06 00:06:15;;;;;;;4.40;3.30;;;20.40;1.00;;;;;;5076238;28;20790;-66
2021/07/06 00:08:42;;;;;;;4.07;3.70;;;20.40;1.00;;;;;;5076687;28;20774;-66
2021/07/06 00:11:08;;;;;;;3.57;3.27;;;20.40;1.00;;;;;;5076300;28;20455;-66
2021/07/06 00:13:35;;;;;;;3.37;3.00;;;20.40;1.00;;;;;;5076206;28;20469;-66
2021/07/06 00:16:02;;;;;;;3.63;3.27;;;20.40;1.00;;;;;;5076368;28;20534;-66
2021/07/06 00:18:30;;;;;;;3.50;2.50;;;20.40;1.00;;;;;;5075710;28;20922;-65
2021/07/06 00:21:00;;;;;;;3.10;2.50;;;20.40;1.00;;;;;;5076221;28;20481;-65
2021/07/06 00:23:27;;;;;;;2.70;2.50;;;20.40;1.00;;;;;;5076459;28;20442;-65
2021/07/06 00:25:53;;;;;;;3.23;2.93;;;20.40;1.00;;;;;;5075830;28;20451;-65
2021/07/06 00:28:20;;;;;;;2.50;2.23;;;20.40;1.00;;;;;;5076103;28;20482;-65
2021/07/06 00:30:47;;;;;;;2.87;2.60;;;20.40;1.00;;;;;;5076334;28;20458;-65
2021/07/06 00:33:13;;;;;;;3.40;3.10;;;20.40;1.00;;;;;;5076606;28;20547;-65
2021/07/06 00:35:42;;;;;;;3.40;2.80;;;20.40;1.00;;;;;;5075960;28;20462;-65
2021/07/06 00:38:09;;;;;;;2.93;2.57;;;20.50;1.00;;;;;;5076007;28;20469;-66
2021/07/06 00:40:36;;;;;;;3.37;3.07;;;20.50;1.00;;;;;;5075988;28;20780;-66
2021/07/06 00:43:02;;;;;;;3.77;3.03;;;20.50;1.00;;;;;;5075753;28;20465;-66
2021/07/06 00:45:30;;;;;;;3.70;2.80;;;20.50;1.00;;;;;;5075699;28;20774;-66
2021/07/06 00:48:00;;;;;;;3.77;3.47;;;20.50;1.00;;;;;;5075872;28;20799;-66
2021/07/06 00:50:29;;;;;;;3.63;3.20;;;20.60;1.00;;;;;;5075561;28;20451;-66
2021/07/06 00:52:58;;;;;;;3.87;3.00;;;20.60;1.00;;;;;;5074401;28;20462;-66
2021/07/06 00:55:24;;;;;;;3.47;3.17;;;20.60;1.00;;;;;;5075281;28;20497;-66
2021/07/06 00:57:51;;;;;;;6.40;2.70;;;20.60;1.00;;;;;;5075407;28;20459;-66
2021/07/06 01:00:23;;;;;;;3.20;2.90;;;20.60;1.00;;;;;;5075403;28;20488;-66
2021/07/06 01:02:51;;;;;;;3.60;2.70;;;20.60;1.00;;;;;;5075826;28;20454;-66
2021/07/06 01:05:20;;;;;;;3.20;2.90;;;20.60;1.00;;;;;;5075251;28;20493;-66
2021/07/06 01:07:47;;;;;;;3.70;3.00;;;20.60;1.00;;;;;;5075658;28;20462;-66
2021/07/06 01:10:16;;;;;;;2.90;2.63;;;20.60;1.00;;;;;;5075292;28;20534;-66
2021/07/06 01:12:49;;;;;;;3.20;2.87;;;20.60;1.00;;;;;;5075502;28;20439;-66
2021/07/06 01:15:19;;;;;;;3.33;3.03;;;20.60;1.00;;;;;;5074850;28;20450;-66
2021/07/06 01:17:58;;;;;;;3.43;2.73;;;20.60;1.00;;;;;;5075465;28;20462;-66
2021/07/06 01:20:24;;;;;;;3.40;3.00;;;20.60;1.00;;;;;;5075170;28;20466;-66
2021/07/06 01:22:53;;;;;;;3.37;2.70;;;20.60;1.00;;;;;;5075094;28;20454;-66
2021/07/06 01:25:19;;;;;;;3.30;3.00;;;20.50;1.00;;;;;;5075110;28;20841;-66
2021/07/06 01:27:46;;;;;;;3.37;3.07;;;20.50;1.00;;;;;;5074987;28;20531;-66
2021/07/06 01:30:15;;;;;;;6.27;3.40;;;20.50;1.00;;;;;;5074937;28;20484;-66
2021/07/06 01:32:42;;;;;;;3.47;3.17;;;20.50;1.00;;;;;;5075080;28;20458;-66
2021/07/06 01:35:11;;;;;;;3.03;2.83;;;20.40;1.00;;;;;;5075000;28;20806;-66
2021/07/06 01:37:45;;;;;;;4.33;3.20;;;20.40;1.00;;;;;;5074829;28;20454;-66
2021/07/06 01:40:14;;;;;;;3.40;3.10;;;20.40;1.00;;;;;;5074614;28;20462;-66
2021/07/06 01:42:42;;;;;;;3.40;3.10;;;20.30;1.00;;;;;;5074934;28;20458;-66
2021/07/06 01:45:10;;;;;;;3.20;2.70;;;20.30;1.00;;;;;;5074987;28;20536;-66
2021/07/06 01:47:38;;;;;;;3.17;2.87;;;20.20;1.00;;;;;;5074519;28;20482;-66
2021/07/06 01:50:07;;;;;;;3.50;3.13;;;20.20;1.00;;;;;;5074875;28;20445;-66
2021/07/06 01:52:34;;;;;;;3.40;3.10;;;20.20;1.00;;;;;;5075049;28;20462;-66
2021/07/06 01:55:01;;;;;;;4.23;3.10;;;20.20;1.00;;;;;;5074661;28;20465;-66
2021/07/06 01:57:29;;;;;;;3.43;3.10;;;20.10;1.00;;;;;;5075430;28;20458;-66
2021/07/06 01:59:56;;;;;;;3.60;3.30;;;20.10;1.00;;;;;;5074741;28;20478;-66
2021/07/06 02:02:22;;;;;;;2.97;2.73;;;20.10;1.00;;;;;;5074728;28;20455;-66
2021/07/06 02:04:51;;;;;;;3.60;3.30;;;20.10;1.00;;;;;;5078852;28;20461;-66
2021/07/06 02:07:17;;;;;;;2.90;2.60;;;20.10;1.00;;;;;;5079089;28;20554;-66
2021/07/06 02:09:44;;;;;;;3.00;2.70;;;20.10;1.00;;;;;;5078731;28;20446;-66
2021/07/06 02:12:11;;;;;;;3.87;2.80;;;20.10;1.00;;;;;;5078676;28;20941;-66
2021/07/06 02:14:39;;;;;;;4.47;2.83;;;20.10;1.00;;;;;;5078742;28;20458;-65
2021/07/06 02:17:06;;;;;;;3.37;2.63;;;20.00;1.00;;;;;;5078677;28;20454;-65
2021/07/06 02:19:32;;;;;;;3.47;2.93;;;20.00;1.00;;;;;;5078716;28;20482;-65
2021/07/06 02:21:59;;;;;;;3.10;2.70;;;20.00;1.00;;;;;;5078543;28;20465;-65
2021/07/06 02:24:26;;;;;;;4.70;2.80;;;20.00;1.00;;;;;;5078593;28;20469;-65
2021/07/06 02:26:53;;;;;;;2.87;2.43;;;19.90;5.40;;;;;;5078419;28;20930;-65
2021/07/06 02:29:20;;;;;;;2.60;2.40;;;19.90;8.40;;;;;;5078683;28;20454;-65
2021/07/06 02:31:48;;;;;;;3.03;2.60;;;19.90;12.40;;;;;;5078457;28;20458;-65
2021/07/06 02:34:15;;;;;;;2.60;2.40;;;19.90;13.90;;;;;;5078316;28;20461;-65
2021/07/06 02:36:42;;;;;;;2.03;1.93;;;19.90;13.00;;;;;;5078705;28;20469;-66
2021/07/06 02:39:08;;;;;;;3.60;2.00;;;19.90;12.10;;;;;;5078590;28;20454;-66
2021/07/06 02:41:35;;;;;;;2.40;2.20;;;19.90;14.00;;;;;;5078306;28;20933;-66
2021/07/06 02:44:02;;;;;;;2.83;2.00;;;19.90;16.30;;;;;;5077682;28;20449;-66
2021/07/06 02:46:28;;;;;;;2.70;2.50;;;19.90;15.30;;;;;;5078014;28;20976;-66
2021/07/06 02:48:56;;;;;;;3.40;2.10;;;19.90;14.70;;;;;;5077828;28;20486;-66
2021/07/06 02:51:23;;;;;;;2.60;2.40;;;19.90;15.30;;;;;;5078015;28;20460;-66
2021/07/06 02:53:50;;;;;;;2.47;2.27;;;19.90;15.80;;;;;;5077550;28;20943;-66
2021/07/06 02:56:17;;;;;;;2.97;2.67;;;20.00;19.80;;;;;;5077836;28;20530;-66
2021/07/06 02:58:43;;;;;;;4.20;2.40;;;20.00;17.60;;;;;;5077766;28;20454;-66
2021/07/06 03:01:10;;;;;;;2.37;2.17;;;20.00;18.90;;;;;;5077856;28;20477;-66
2021/07/06 03:03:37;;;;;;;2.90;2.60;;;20.00;21.40;;;;;;5077901;28;20507;-66
2021/07/06 03:06:05;;;;;;;3.10;2.80;;;20.00;23.80;;;;;;5077726;28;20827;-66
2021/07/06 03:08:34;;;;;;;2.53;2.33;;;20.00;27.20;;;;;;5077867;28;20454;-66
2021/07/06 03:11:01;;;;;;;2.60;2.40;;;19.90;31.20;;;;;;5077903;28;20855;-66
2021/07/06 03:13:30;;;;;;;2.90;2.70;;;19.90;37.50;;;;;;5077689;28;20515;-66
2021/07/06 03:15:57;;;;;;;2.87;2.67;;;19.90;43.10;;;;;;5076374;28;20536;-66
2021/07/06 03:18:24;;;;;;;3.17;2.87;;;19.90;49.30;;;;;;5077752;28;20454;-66
2021/07/06 03:20:53;;;;;;;3.50;2.80;;;19.90;52.60;;;;;;5077262;28;20841;-66
2021/07/06 03:23:21;;;;;;;3.47;2.70;;;19.90;54.90;;;;;;5077485;28;20462;-66
2021/07/06 03:25:48;;;;;;;2.90;2.70;;;19.90;60.60;;;;;;5077443;28;20458;-66
2021/07/06 03:28:15;;;;;;;6.10;2.90;;;19.80;63.50;;;;;;5077460;28;20465;-66
2021/07/06 03:30:42;;;;;;;3.20;2.90;;;19.80;73.70;;;;;;5077216;28;20514;-66
2021/07/06 03:33:10;;;;;;;3.63;3.20;;;19.80;76.30;;;;;;5077253;28;20507;-66
2021/07/06 03:35:38;;;;;;;2.73;2.53;;;19.80;80.20;;;;;;5077441;28;20468;-66
2021/07/06 03:38:07;;;;;;;3.20;2.80;;;19.80;81.40;;;;;;5077185;28;20466;-66
2021/07/06 03:40:36;;;;;;;2.80;2.60;;;19.80;85.40;;;;;;5077191;28;20505;-66
2021/07/06 03:43:03;;;;;;;3.60;3.00;;;19.80;90.00;;;;;;5076997;28;20469;-66
2021/07/06 03:45:30;;;;;;;3.27;2.97;;;19.80;84.60;;;;;;5077279;28;20758;-67
2021/07/06 03:47:58;;;;;;;3.53;3.23;;;19.80;90.50;;;;;;5077075;28;20569;-67
2021/07/06 03:50:26;;;;;;;5.60;2.80;;;19.80;93.90;;;;;;5077041;28;20461;-67
2021/07/06 03:52:57;;;;;;;5.47;2.63;;;19.80;93.10;;;;;;5076775;28;20458;-66
2021/07/06 03:55:25;;;;;;;3.53;3.00;;;19.90;83.30;;;;;;5076988;28;20776;-66
2021/07/06 03:57:53;;;;;;;4.20;2.47;;;19.90;81.90;;;;;;5076823;28;20788;-67
2021/07/06 04:00:22;;;;;;;5.03;2.70;;;19.90;71.30;;;;;;5077053;28;20930;-66
2021/07/06 04:02:49;;;;;;;4.10;3.03;;;20.00;62.30;;;;;;5077325;28;20454;-66
2021/07/06 04:05:19;;;;;;;3.30;3.00;;;20.00;53.70;;;;;;5077328;28;20914;-66
2021/07/06 04:07:46;;;;;;;3.60;3.20;;;20.10;43.00;;;;;;5076981;28;20489;-66
2021/07/06 04:10:16;;;;;;;3.20;2.87;;;20.10;28.70;;;;;;5076363;28;20462;-66
2021/07/06 04:12:43;;;;;;;3.40;3.10;;;20.20;21.80;;;;;;5076532;28;20588;-66
2021/07/06 04:15:14;;;;;;;2.93;2.73;;;20.20;20.40;;;;;;5076351;28;20462;-66
2021/07/06 04:17:42;;;;;;;3.87;3.00;;;20.30;7.80;;;;;;5076069;28;20454;-66
2021/07/06 04:20:13;;;;;;;3.33;3.10;;;20.40;1.00;;;;;;5076254;28;20485;-66
2021/07/06 04:22:39;;;;;;;3.57;3.27;;;20.40;1.00;;;;;;5076677;28;20534;-66
2021/07/06 04:25:08;;;;;;;3.00;2.20;;;20.40;1.00;;;;;;5076754;28;20465;-66
2021/07/06 04:27:35;;;;;;;3.00;2.80;;;20.40;1.00;;;;;;5076091;28;20519;-67
2021/07/06 04:30:02;;;;;;;4.03;3.73;;;20.40;1.00;;;;;;5075921;28;20454;-67
2021/07/06 04:32:30;;;;;;;3.33;2.90;;;20.40;1.00;;;;;;5076259;28;20465;-65
2021/07/06 04:34:57;;;;;;;3.53;3.07;;;20.40;1.00;;;;;;5076791;28;20769;-65
2021/07/06 04:37:23;;;;;;;3.57;3.00;;;20.40;1.00;;;;;;5077696;28;20465;-65
2021/07/06 04:39:50;;;;;;;3.93;3.10;;;20.40;1.00;;;;;;5077590;28;20520;-65
2021/07/06 04:42:17;;;;;;;3.30;3.00;;;20.30;1.00;;;;;;5077167;28;20513;-65
2021/07/06 04:44:44;;;;;;;2.90;2.70;;;20.30;1.00;;;;;;5075673;28;20469;-65
2021/07/06 04:47:13;;;;;;;3.20;2.90;;;20.30;1.00;;;;;;5075327;28;20469;-65
2021/07/06 04:49:41;;;;;;;3.20;2.90;;;20.30;1.00;;;;;;5075305;28;20453;-65
2021/07/06 04:52:08;;;;;;;25.20;16.20;;;20.40;1.00;;;;;;5075614;28;20458;-65
2021/07/06 04:54:35;;;;;;;4.00;3.53;;;20.40;1.00;;;;;;5075695;28;20462;-65
2021/07/06 04:57:02;;;;;;;3.40;3.10;;;20.40;1.00;;;;;;5075674;28;20458;-65
2021/07/06 04:59:30;;;;;;;3.83;3.53;;;20.50;1.00;;;;;;5075179;28;20972;-65
2021/07/06 05:01:57;;;;;;;4.73;3.63;;;20.50;1.00;;;;;;5075358;28;20838;-65
2021/07/06 05:04:24;;;;;;;4.33;2.80;;;20.60;1.00;;;;;;5075520;28;20458;-65
2021/07/06 05:06:52;;;;;;;3.17;2.87;;;20.60;1.00;;;;;;5075283;28;20465;-65
2021/07/06 05:09:22;;;;;;;3.60;3.00;;;20.60;1.00;;;;;;5075294;28;20811;-65
2021/07/06 05:11:48;;;;;;;2.77;2.50;;;20.60;1.00;;;;;;5075376;28;20480;-65
2021/07/06 05:14:15;;;;;;;3.03;2.73;;;20.70;1.00;;;;;;5075373;28;20466;-65
2021/07/06 05:16:42;;;;;;;3.37;3.07;;;20.70;1.00;;;;;;5075029;28;20458;-66
2021/07/06 05:19:08;;;;;;;4.80;3.90;;;20.70;1.00;;;;;;5075756;28;20458;-65
2021/07/06 05:21:35;;;;;;;3.50;2.87;;;20.80;1.00;;;;;;5074693;28;20482;-65
2021/07/06 05:24:03;;;;;;;3.27;3.07;;;20.80;1.00;;;;;;5074920;28;20523;-65
2021/07/06 05:26:30;;;;;;;2.90;2.70;;;20.80;1.00;;;;;;5075093;28;20914;-65
2021/07/06 05:28:57;;;;;;;3.23;3.00;;;20.80;1.00;;;;;;5075018;28;20458;-67
2021/07/06 05:31:23;;;;;;;2.90;2.70;;;20.80;1.00;;;;;;5074683;28;20454;-66
2021/07/06 05:33:50;;;;;;;4.53;3.67;;;20.80;1.00;;;;;;5075304;28;20938;-66
2021/07/06 05:36:18;;;;;;;2.80;2.60;;;20.80;1.00;;;;;;5075095;28;20477;-66
2021/07/06 05:38:45;;;;;;;2.70;2.50;;;20.90;1.00;;;;;;5074461;28;20454;-66
2021/07/06 05:41:13;;;;;;;4.07;2.33;;;20.90;1.00;;;;;;5074464;28;20803;-66
2021/07/06 05:43:41;;;;;;;3.87;2.37;;;20.90;1.00;;;;;;5074752;28;20458;-66
2021/07/06 05:46:08;;;;;;;3.50;2.73;;;21.00;1.00;;;;;;5074504;28;20515;-66
2021/07/06 05:48:35;;;;;;;2.87;2.67;;;21.00;1.00;;;;;;5074562;28;20493;-65
2021/07/06 05:51:02;;;;;;;6.13;2.67;;;21.10;1.00;;;;;;5074954;28;21000;-66
2021/07/06 05:53:28;;;;;;;2.80;2.60;;;21.20;1.00;;;;;;5074772;28;20454;-66
2021/07/06 05:55:55;;;;;;;3.80;2.73;;;21.20;1.00;;;;;;5074326;28;20454;-66
2021/07/06 05:58:26;;;;;;;3.90;2.50;;;21.30;1.00;;;;;;5074443;28;20473;-66
2021/07/06 06:00:53;;;;;;;3.70;2.60;;;21.30;1.00;;;;;;5074666;28;20830;-66
2021/07/06 06:03:19;;;;;;;2.83;2.23;;;21.30;1.00;;;;;;5074657;28;20454;-65
2021/07/06 06:05:47;;;;;;;2.53;1.97;;;21.30;1.00;;;;;;5074151;28;20911;-67
2021/07/06 06:08:14;;;;;;;3.07;2.43;;;21.40;1.00;;;;;;5074805;28;20890;-67
2021/07/06 06:10:42;;;;;;;2.77;2.30;;;21.40;1.00;;;;;;5074581;28;20450;-65
2021/07/06 06:13:08;;;;;;;3.33;2.70;;;21.40;1.00;;;;;;5074303;28;20450;-66
2021/07/06 06:15:36;;;;;;;3.20;2.40;;;21.50;1.00;;;;;;5074585;28;20772;-66
2021/07/06 06:18:03;;;;;;;2.20;2.10;;;21.50;1.00;;;;;;5074565;28;20466;-66
2021/07/06 06:20:30;;;;;;;4.30;2.43;;;21.60;1.00;;;;;;5074125;28;20510;-66
2021/07/06 06:22:57;;;;;;;2.67;2.47;;;21.70;1.00;;;;;;5074605;28;20464;-66
2021/07/06 06:25:23;;;;;;;2.30;2.10;;;21.80;1.00;;;;;;5074477;28;20462;-66
2021/07/06 06:27:50;;;;;;;2.57;2.37;;;21.80;1.00;;;;;;5074271;28;20457;-66
2021/07/06 06:30:18;;;;;;;3.57;2.13;;;21.90;1.00;;;;;;5074433;28;20462;-66
2021/07/06 06:32:46;;;;;;;2.73;2.20;;;22.00;1.00;;;;;;5074632;28;20777;-66
2021/07/06 06:35:13;;;;;;;4.80;2.57;;;22.10;1.00;;;;;;5074407;28;20462;-67
2021/07/06 06:37:41;;;;;;;2.33;2.20;;;22.10;1.00;;;;;;5074157;28;20878;-66
2021/07/06 06:40:09;;;;;;;5.87;2.13;;;22.20;1.00;;;;;;5075191;28;20516;-66
2021/07/06 06:42:35;;;;;;;5.40;2.50;;;22.30;1.00;;;;;;5074117;28;20478;-66
2021/07/06 06:45:02;;;;;;;2.73;1.90;;;22.40;1.00;;;;;;5074667;28;20450;-67
2021/07/06 06:47:29;;;;;;;2.53;2.10;;;22.50;99.90;;;;;;5074468;28;20489;-66
2021/07/06 06:49:57;;;;;;;2.40;2.20;;;22.60;99.90;;;;;;5076510;28;20439;-66
2021/07/06 06:52:24;;;;;;;2.10;1.90;;;22.70;99.90;;;;;;5078231;28;20763;-66
2021/07/06 06:54:50;;;;;;;2.20;1.90;;;22.90;1.00;;;;;;5078229;28;20462;-66
2021/07/06 06:57:21;;;;;;;3.60;2.00;;;23.00;1.00;;;;;;5078191;28;20469;-67
2021/07/06 06:59:48;;;;;;;3.07;2.13;;;23.10;99.90;;;;;;5077709;28;20442;-66
2021/07/06 07:02:17;;;;;;;2.10;1.90;;;23.20;22.40;;;;;;5078011;28;20491;-66
2021/07/06 07:04:45;;;;;;;2.50;1.73;;;23.40;1.00;;;;;;5078436;28;20469;-66
2021/07/06 07:07:13;;;;;;;2.20;1.70;;;23.50;25.40;;;;;;5077810;28;20450;-66
2021/07/06 07:09:40;;;;;;;1.70;1.60;;;23.60;99.90;;;;;;5077704;28;20859;-67
2021/07/06 07:12:07;;;;;;;3.40;1.30;;;23.60;1.00;;;;;;5077255;28;20929;-67
2021/07/06 07:14:35;;;;;;;2.80;1.53;;;23.70;1.00;;;;;;5077945;28;20453;-67
2021/07/06 07:17:02;;;;;;;1.87;1.67;;;23.80;1.00;;;;;;5077233;28;20507;-66
2021/07/06 07:19:28;;;;;;;1.60;1.50;;;23.90;99.90;;;;;;5077732;28;20511;-66
2021/07/06 07:21:55;;;;;;;2.17;1.67;;;24.00;1.00;;;;;;5077133;28;20482;-66
2021/07/06 07:24:23;;;;;;;2.00;1.80;;;24.10;1.00;;;;;;5077612;28;20454;-66
2021/07/06 07:26:50;;;;;;;1.60;1.37;;;24.20;1.00;;;;;;5077538;28;20984;-66
2021/07/06 07:29:17;;;;;;;2.53;1.40;;;24.20;1.00;;;;;;5077302;28;20454;-66
2021/07/06 07:31:44;;;;;;;1.60;1.30;;;24.30;1.00;;;;;;5077514;28;20465;-66
2021/07/06 07:34:11;;;;;;;3.73;1.10;;;24.40;99.90;;;;;;5077070;28;20465;-66
2021/07/06 07:36:39;;;;;;;1.67;1.30;;;24.40;99.90;;;;;;5077655;28;20462;-66
2021/07/06 07:39:06;;;;;;;1.30;1.20;;;24.40;99.90;;;;;;5077217;28;20462;-66
2021/07/06 07:41:34;;;;;;;1.60;1.20;;;24.30;99.90;;;;;;5076934;28;20478;-66
2021/07/06 07:44:01;;;;;;;1.87;1.30;;;24.30;99.90;;;;;;5077216;28;20481;-66
2021/07/06 07:46:28;;;;;;;1.60;1.50;;;24.30;99.90;;;;;;5077107;28;20787;-66
2021/07/06 07:48:58;;;;;;;1.57;1.47;;;24.30;99.90;;;;;;5076707;28;21012;-66
2021/07/06 07:51:25;;;;;;;1.20;1.10;;;24.40;99.90;;;;;;5077187;28;20466;-65
2021/07/06 07:53:52;;;;;;;2.10;1.20;;;24.40;99.90;;;;;;5076963;28;20519;-67
2021/07/06 07:56:18;;;;;;;2.10;1.13;;;24.40;32.30;;;;;;5076688;28;20462;-65
2021/07/06 07:58:46;;;;;;;1.33;1.20;;;24.40;23.80;;;;;;5076564;28;20461;-66
2021/07/06 08:01:13;;;;;;;1.60;0.93;;;24.30;27.70;;;;;;5077235;28;20478;-67
2021/07/06 08:03:40;;;;;;;2.23;1.33;;;24.30;1.00;;;;;;5076663;28;20458;-66
2021/07/06 08:06:07;;;;;;;3.07;1.13;;;24.30;1.00;;;;;;5076674;28;20464;-66
2021/07/06 08:08:33;;;;;;;6.20;1.57;;;24.40;1.00;;;;;;5076691;28;20454;-66
2021/07/06 08:11:01;;;;;;;1.93;1.30;;;24.40;1.00;;;;;;5076449;28;20484;-66
2021/07/06 08:13:28;;;;;;;1.27;1.00;;;24.50;1.00;;;;;;5076911;28;20539;-66
2021/07/06 08:15:56;;;;;;;1.93;1.40;;;24.50;1.00;;;;;;5077329;28;20454;-66
2021/07/06 08:18:22;;;;;;;1.30;1.20;;;24.60;1.00;;;;;;5076511;28;20461;-65
2021/07/06 08:20:49;;;;;;;1.63;1.30;;;24.70;1.00;;;;;;5075994;28;20890;-65
2021/07/06 08:23:16;;;;;;;1.77;1.60;;;24.70;1.00;;;;;;5075715;28;20454;-66
2021/07/06 08:25:44;;;;;;;1.40;1.20;;;24.80;1.00;;;;;;5076368;28;20530;-66
2021/07/06 08:28:11;;;;;;;3.30;1.20;;;24.90;1.00;;;;;;5076090;28;20461;-65
2021/07/06 08:30:39;;;;;;;1.67;1.50;;;25.00;1.00;;;;;;5076223;28;20462;-66
2021/07/06 08:33:08;;;;;;;10.40;2.10;;;25.00;1.00;;;;;;5076161;28;20446;-65
2021/07/06 08:35:34;;;;;;;3.10;1.30;;;25.10;1.00;;;;;;5076184;28;20464;-66
2021/07/06 08:38:01;;;;;;;3.57;1.80;;;25.20;1.00;;;;;;5075843;28;20458;-66
2021/07/06 08:40:28;;;;;;;1.70;1.50;;;25.30;1.00;;;;;;5075949;28;20464;-66
2021/07/06 08:42:59;;;;;;;4.47;1.77;;;25.30;1.00;;;;;;5075935;28;20482;-65
2021/07/06 08:45:26;;;;;;;4.80;2.80;;;25.40;1.00;;;;;;5076403;28;20477;-65
2021/07/06 08:47:54;;;;;;;3.20;2.90;;;25.50;1.00;;;;;;5075098;28;20581;-65
2021/07/06 08:50:23;;;;;;;3.67;2.57;;;25.60;99.90;;;;;;5075955;28;20465;-66
2021/07/06 08:52:50;;;;;;;3.97;3.20;;;25.70;99.90;;;;;;5076044;28;20454;-65
2021/07/06 08:55:18;;;;;;;2.30;1.90;;;25.70;99.90;;;;;;5075903;28;20465;-65
2021/07/06 08:57:46;;;;;;;2.70;2.30;;;25.70;99.90;;;;;;5075413;28;20458;-66
2021/07/06 09:00:14;;;;;;;2.40;1.70;;;25.70;99.90;;;;;;5075337;28;20454;-65
2021/07/06 09:02:41;;;;;;;4.57;1.30;;;25.80;99.90;;;;;;5075697;28;20505;-66
2021/07/06 09:05:19;;;;;;;1.30;1.20;;;25.80;99.90;;;;;;5075663;28;20454;-66
2021/07/06 09:07:47;;;;;;;1.30;1.20;;;25.80;99.90;;;;;;5075677;28;20447;-65
2021/07/06 09:10:16;;;;;;;2.10;1.30;;;25.90;99.90;;;;;;5075170;28;20902;-65
2021/07/06 09:12:44;;;;;;;1.50;1.40;;;25.90;99.90;;;;;;5074846;28;20541;-65
2021/07/06 09:15:26;;;;;;;1.50;1.40;;;25.90;99.90;;;;;;5075214;28;20489;-66
2021/07/06 09:18:07;;;;;;;24.43;1.90;;;26.00;99.90;;;;;;5075457;28;20454;-65
2021/07/06 09:20:35;;;;;;;1.40;1.20;;;26.00;99.90;;;;;;5075177;28;20738;-64
2021/07/06 09:23:38;;;;;;;1.47;1.27;;;26.00;99.90;;;;;;5075597;28;20489;-64
2021/07/06 09:26:11;;;;;;;3.20;1.70;;;26.10;99.90;;;;;;5034099;28;20436;-67
2021/07/06 09:28:39;;;;;;;1.33;1.20;;;26.10;99.90;;;;;;5033898;28;20440;-66
2021/07/06 09:31:26;;;;;;;1.20;1.03;;;26.10;99.90;;;;;;5054752;28;20446;-64
2021/07/06 09:34:02;;;;;;;1.50;1.00;;;26.20;99.90;;;;;;5075271;28;20883;-65
2021/07/06 09:36:32;;;;;;;1.60;1.00;;;26.20;99.90;;;;;;5075243;28;20444;-65
2021/07/06 09:39:02;;;;;;;1.20;1.07;;;26.30;99.90;;;;;;5075268;28;20454;-65
2021/07/06 09:41:29;;;;;;;2.50;1.30;;;26.40;99.90;;;;;;5075103;28;20461;-65
2021/07/06 09:43:56;;;;;;;1.23;1.13;;;26.40;99.90;;;;;;5075139;28;20465;-65
2021/07/06 09:46:24;;;;;;;1.53;1.20;;;26.40;99.90;;;;;;5075204;28;20841;-65
2021/07/06 09:49:00;;;;;;;1.50;1.40;;;26.40;99.90;;;;;;5074608;28;20483;-65
2021/07/06 09:51:27;;;;;;;1.43;1.17;;;26.50;99.90;;;;;;5075299;28;20465;-65
2021/07/06 09:53:55;;;;;;;1.10;1.00;;;26.60;99.90;;;;;;5076266;28;20821;-64
2021/07/06 09:56:26;;;;;;;2.30;1.30;;;26.70;99.90;;;;;;5074977;28;20520;-66
2021/07/06 09:58:55;;;;;;;1.43;1.33;;;26.80;99.90;;;;;;5075397;28;20549;-64
2021/07/06 10:01:22;;;;;;;2.00;1.20;;;26.90;99.90;;;;;;5074880;28;20787;-64
2021/07/06 10:03:50;;;;;;;1.53;1.30;;;27.10;99.90;;;;;;5075027;28;20546;-66
2021/07/06 10:06:19;;;;;;;1.90;1.37;;;27.10;99.90;;;;;;5074878;28;20445;-65
2021/07/06 10:08:47;;;;;;;1.13;0.93;;;27.10;99.90;;;;;;5074952;28;20964;-65
2021/07/06 10:11:14;;;;;;;1.30;1.03;;;27.10;99.90;;;;;;5075273;28;20498;-65
2021/07/06 10:13:42;;;;;;;3.53;1.00;;;27.10;99.90;;;;;;5075049;28;20759;-65
2021/07/06 10:16:09;;;;;;;7.63;1.10;;;27.20;99.90;;;;;;5074625;28;20458;-65
2021/07/06 10:18:37;;;;;;;1.40;0.90;;;27.20;99.90;;;;;;5074850;28;20469;-65
2021/07/06 10:21:06;;;;;;;1.00;0.80;;;27.30;99.90;;;;;;5074784;28;20450;-65
2021/07/06 10:23:34;;;;;;;4.03;1.00;;;27.40;99.30;;;;;;5074660;28;20482;-65
2021/07/06 10:26:04;;;;;;;5.27;1.00;;;27.40;83.90;;;;;;5078564;28;20465;-66
2021/07/06 10:28:32;;;;;;;1.43;0.80;;;27.40;60.40;;;;;;5078964;28;20481;-65
2021/07/06 10:31:15;;;;;;;1.40;1.10;;;27.40;56.30;;;;;;5078742;28;20830;-65
2021/07/06 10:33:43;;;;;;;1.13;0.90;;;27.50;40.80;;;;;;5078873;28;20434;-65
2021/07/06 10:36:11;;;;;;;2.40;1.03;;;27.50;27.20;;;;;;5078851;28;20469;-65
2021/07/06 10:38:43;;;;;;;1.10;0.90;;;27.60;17.80;;;;;;5079664;28;20515;-65
2021/07/06 10:41:18;;;;;;;1.30;0.90;;;27.60;10.50;;;;;;5079305;28;20450;-65
2021/07/06 10:44:06;;;;;;;1.33;0.80;;;27.60;8.20;;;;;;5078824;28;20519;-65
2021/07/06 10:46:49;;;;;;;11.60;1.20;;;27.80;6.30;;;;;;5075523;28;20926;-66
2021/07/06 10:49:28;;;;;;;1.50;1.00;;;27.80;1.00;;;;;;5078579;28;20478;-66
2021/07/06 10:51:55;;;;;;;16.53;2.10;;;27.80;1.00;;;;;;5079558;28;20445;-65
2021/07/06 10:54:40;;;;;;;32.10;2.33;;;27.80;1.00;;;;;;5078816;28;20454;-65
2021/07/06 10:57:26;;;;;;;1.60;1.00;;;27.80;1.00;;;;;;5078964;28;20477;-65
2021/07/06 10:59:58;;;;;;;4.50;0.90;;;27.80;1.00;;;;;;5078455;28;20438;-65
2021/07/06 11:02:31;;;;;;;1.00;0.80;;;27.90;1.00;;;;;;5078398;28;20603;-65
2021/07/06 11:05:11;;;;;;;1.70;1.10;;;28.00;1.00;;;;;;5077682;28;20470;-65
2021/07/06 11:08:01;;;;;;;1.30;1.00;;;28.10;1.00;;;;;;5078912;28;20499;-65
2021/07/06 11:10:40;;;;;;;1.27;0.93;;;28.20;1.00;;;;;;5079557;28;20434;-65
2021/07/06 11:13:17;;;;;;;1.73;1.07;;;28.30;1.00;;;;;;5079317;28;20446;-66
2021/07/06 11:15:44;;;;;;;1.93;1.00;;;28.50;1.00;;;;;;5078189;28;20466;-66
2021/07/06 11:18:13;;;;;;;2.27;1.10;;;28.50;1.00;;;;;;5078447;28;20461;-65
2021/07/06 11:20:42;;;;;;;1.03;0.87;;;28.60;1.00;;;;;;5079317;28;20461;-66
2021/07/06 11:23:11;;;;;;;1.30;0.90;;;28.70;1.00;;;;;;5079340;28;20485;-65
2021/07/06 11:25:41;;;;;;;1.30;0.80;;;29.00;1.00;;;;;;5078451;28;20887;-66
2021/07/06 11:28:10;;;;;;;1.57;0.90;;;29.40;1.00;;;;;;5080122;28;20458;-66
2021/07/06 11:30:41;;;;;;;1.43;1.00;;;29.70;1.00;;;;;;5079870;28;20488;-66
2021/07/06 11:33:10;;;;;;;1.53;1.00;;;30.10;1.00;;;;;;5081030;28;20778;-66
2021/07/06 11:35:39;;;;;;;1.37;0.80;;;30.40;1.00;;;;;;5079484;28;20462;-65
2021/07/06 11:38:08;;;;;;;2.00;0.87;;;30.50;1.00;;;;;;5079720;28;20458;-66
2021/07/06 11:40:37;;;;;;;1.70;1.60;;;30.80;1.00;;;;;;5079074;28;20791;-66
2021/07/06 11:43:04;;;;;;;1.60;1.00;;;31.20;1.00;;;;;;5078875;28;20784;-66
2021/07/06 11:45:31;;;;;;;2.20;0.90;;;31.70;1.00;;;;;;5078760;28;20922;-66
2021/07/06 11:48:07;;;;;;;4.23;1.03;;;32.50;1.00;;;;;;5079839;28;20485;-65
2021/07/06 11:50:34;;;;;;;1.43;1.10;;;33.20;1.00;;;;;;5079910;28;20450;-65
2021/07/06 11:53:02;;;;;;;2.50;0.90;;;33.60;1.00;;;;;;5079708;28;20849;-65
2021/07/06 11:55:31;;;;;;;2.23;0.90;;;34.10;1.00;;;;;;5079203;28;20560;-66
2021/07/06 11:58:01;;;;;;;1.40;0.90;;;34.40;1.00;;;;;;5078399;28;20466;-66
2021/07/06 12:00:30;;;;;;;2.90;0.90;;;34.80;1.00;;;;;;5078334;28;20466;-65
2021/07/06 12:03:26;;;;;;;3.60;0.80;;;35.30;1.00;;;;;;5077677;28;20474;-66
2021/07/06 12:05:55;;;;;;;1.97;1.20;;;35.40;1.00;;;;;;5077670;28;20489;-65
2021/07/06 12:08:25;;;;;;;1.33;0.90;;;35.30;1.00;;;;;;5077657;28;20465;-64
2021/07/06 12:11:00;;;;;;;1.23;0.90;;;35.30;1.00;;;;;;5077280;28;20438;-64
2021/07/06 12:13:29;;;;;;;2.80;0.80;;;35.10;1.00;;;;;;5077361;28;20461;-65
2021/07/06 12:16:00;;;;;;;1.93;0.90;;;34.80;1.00;;;;;;5077244;28;20454;-64
2021/07/06 12:18:27;;;;;;;1.77;0.90;;;34.40;1.00;;;;;;5077578;28;20809;-65
2021/07/06 12:20:56;;;;;;;1.37;0.90;;;33.80;1.00;;;;;;5077603;28;20459;-64
2021/07/06 12:23:26;;;;;;;1.93;1.03;;;33.80;1.00;;;;;;5077263;28;20478;-65
2021/07/06 12:25:55;;;;;;;1.40;0.90;;;34.00;1.00;;;;;;5077263;28;20469;-64
2021/07/06 12:28:22;;;;;;;1.23;0.90;;;33.90;1.00;;;;;;5077473;28;20469;-65
2021/07/06 12:31:15;;;;;;;1.83;1.00;;;33.60;1.00;;;;;;5078081;28;20473;-65
2021/07/06 12:33:43;;;;;;;1.60;1.00;;;33.80;1.00;;;;;;5078269;28;20484;-65
2021/07/06 12:36:09;;;;;;;1.10;0.93;;;33.80;1.00;;;;;;5077777;28;20450;-65
2021/07/06 12:38:38;;;;;;;2.60;1.20;;;34.10;1.00;;;;;;5078024;28;20536;-65
2021/07/06 12:41:17;;;;;;;1.80;0.93;;;34.40;1.00;;;;;;5077220;28;20458;-65
2021/07/06 12:43:44;;;;;;;1.73;0.90;;;34.70;1.00;;;;;;5077951;28;20813;-65
2021/07/06 12:46:13;;;;;;;4.13;1.00;;;34.40;1.00;;;;;;5076356;28;20462;-65
2021/07/06 12:48:45;;;;;;;3.37;0.97;;;34.20;1.00;;;;;;5076371;28;20492;-65
2021/07/06 12:51:12;;;;;;;1.27;1.07;;;33.90;1.00;;;;;;5078022;28;20442;-65
2021/07/06 12:53:40;;;;;;;2.90;0.87;;;33.80;1.00;;;;;;5077776;28;20458;-65
2021/07/06 12:56:23;;;;;;;2.13;0.80;;;34.20;1.00;;;;;;5077586;28;20454;-65
2021/07/06 12:58:50;;;;;;;2.83;0.90;;;34.80;1.00;;;;;;5078242;28;20449;-65
2021/07/06 13:01:32;;;;;;;1.30;1.00;;;35.20;1.00;;;;;;5079325;28;20486;-65